This is the latest recevied weather packets stored in our database for station/object OE-11204. If no packets are shown the sender has not sent any weather packets the latest 10 day(s).
| Time | Temp. | Humidity | Pressure | Rain* | Wind** | Luminosity | Snow |
|---|---|---|---|---|---|---|---|
| 1787999115 | 22.22° C | 54% | 1015.3 hPa | 0 mm | - | 483 W/m² | - |
| 1787998288 | 22.78° C | 52% | 1015.3 hPa | 0 mm | - | 743 W/m² | - |
| 1787997914 | 22.22° C | 57% | 1015.4 hPa | 0 mm | - | 551 W/m² | - |
| 1787997315 | 21.67° C | 55% | 1015.7 hPa | 0 mm | - | 674 W/m² | - |
| 1787996488 | 21.11° C | 61% | 1016 hPa | 0 mm | - | 668 W/m² | - |
| 1787996115 | 21.11° C | 60% | 1016.1 hPa | 0 mm | - | 668 W/m² | - |
| 1787995515 | 20.56° C | 64% | 1016.2 hPa | 0 mm | - | 718 W/m² | - |
| 1787994688 | 20.56° C | 66% | 1016.4 hPa | 0 mm | - | 724 W/m² | - |
| 1787994315 | 20° C | 67% | 1016.6 hPa | 0 mm | - | 526 W/m² | - |
| 1787993715 | 19.44° C | 67% | 1016.7 hPa | 0 mm | - | 446 W/m² | - |
| 1787992887 | 20° C | 68% | 1016.6 hPa | 0 mm | - | 631 W/m² | - |
| 1787992514 | 18.89° C | 73% | 1016.8 hPa | 0 mm | - | 483 W/m² | - |
| 1787991914 | 18.89° C | 75% | 1016.9 hPa | 0 mm | - | 470 W/m² | - |
| 1787991088 | 18.33° C | 74% | 1017 hPa | 0 mm | - | 303 W/m² | - |
| 1787990714 | 17.78° C | 76% | 1017.2 hPa | 0 mm | - | 198 W/m² | - |
| 1787990115 | 18.33° C | 82% | 1017 hPa | 0 mm | - | 266 W/m² | - |
| 1787989287 | 17.78° C | 79% | 1017.1 hPa | 0 mm | - | 210 W/m² | - |
| 1787988915 | 17.78° C | 81% | 1017.1 hPa | 0 mm | - | 229 W/m² | - |
| 1787988314 | 17.78° C | 83% | 1017 hPa | 0 mm | - | 303 W/m² | - |
| 1787987488 | 16.67° C | 82% | 1017.3 hPa | 0 mm | - | 192 W/m² | - |
| 1787987115 | 16.67° C | 82% | 1017.3 hPa | 0 mm | - | 161 W/m² | - |
| 1787986515 | 16.67° C | 82% | 1017.3 hPa | 0 mm | - | 192 W/m² | - |
| 1787985688 | 16.67° C | 84% | 1017.4 hPa | 0 mm | - | 198 W/m² | - |
| 1787985314 | 16.11° C | 85% | 1017.5 hPa | 0 mm | - | 186 W/m² | - |
| 1787984715 | 15.56° C | 88% | 1017.5 hPa | 0 mm | - | 155 W/m² | - |
* Rain latest hour (hover to see other rain measurements)
** Current wind speed in m/s (hover to see current wind gust speed)